Monday, January 22, 2018, 1:55 PM GMT
Back to Local

CWQO, Ile Bicquette, Que.

Location: , , Canada Lat: 48.416
Local Time: 1:55 PM GMT (13:55 GMT) Lon: -68.893
Time Zone: GMT Elev: 22 ft

Show me the last for .
Show Coded

Time T Td Feel RH Dir Speed Gust Alt SLP Vis Weather Sky Remarks
2018-01-22 13:00 8 0 -13 67 310° 20 26 - - 0 Peak wind: 26 mph (23 kts) from 320° at 52 min
2018-01-22 12:00 8 -2 -13 62 310° 18 24 - - 0 Peak wind: 25 mph (22 kts) from 310° at 26 min
2018-01-22 11:00 11 1 -9 64 300° 17 23 - - 0 Peak wind: 23 mph (20 kts) from 290° at 52 min
2018-01-22 10:00 11 1 -5 62 310° 14 - - - 0 Peak wind: 24 mph (21 kts) from 300° at 06 min
2018-01-22 09:00 12 2 -6 65 290° 18 - - - 0 Peak wind: 21 mph (19 kts) from 300° at 17 min
2018-01-22 08:00 11 1 -5 63 310° 16 - - - 0 Peak wind: 24 mph (21 kts) from 300° at 24 min
2018-01-22 07:00 11 2 -6 64 320° 17 - - - 0 Peak wind: 21 mph (19 kts) from 320° at 50 min
2018-01-22 06:00 12 3 -4 65 310° 16 - - - 0 Peak wind: 21 mph (19 kts) from 310° at 47 min
2018-01-22 05:00 14 5 -2 67 300° 16 - - - 0 Peak wind: 19 mph (17 kts) from 300° at 50 min
2018-01-22 04:00 13 4 -5 65 300° 15 21 - - 0 Peak wind: 23 mph (20 kts) from 310° at 01 min
2018-01-22 03:00 14 4 -3 65 300° 17 - - - 0 Peak wind: 26 mph (23 kts) from 290° at 01 min
2018-01-22 02:00 13 4 -7 66 300° 21 26 - - 0 Peak wind: 27 mph (24 kts) from 290° at 36 min
2018-01-22 01:00 14 4 -6 61 290° 21 28 - - 0 Peak wind: 28 mph (25 kts) from 280° at 39 min
2018-01-22 00:00 14 1 -4 53 300° 22 - - - 0 Peak wind: 31 mph (27 kts) from 330° at 10 min
2018-01-21 23:00 17 1 -2 48 290° 18 24 - - 0 Peak wind: 26 mph (23 kts) from 300° at 40 min
2018-01-21 22:00 16 4 -1 56 290° 22 - - - 0 Peak wind: 31 mph (27 kts) from 280° at 19 min
2018-01-21 21:00 17 9 -1 69 260° 24 - - - 0 Peak wind: 32 mph (28 kts) from 250° at 30 min
2018-01-21 20:00 17 8 -1 66 240° 24 - - - 0 Peak wind: 31 mph (27 kts) from 250° at 24 min
2018-01-21 19:00 17 7 0 63 270° 22 - - - 0 Peak wind: 27 mph (24 kts) from 260° at 22 min
2018-01-21 18:00 18 7 -1 60 280° 23 29 - - 0 Peak wind: 28 mph (25 kts) from 280° at 55 min
2018-01-21 17:00 16 5 1 60 270° 16 - - - 0 Peak wind: 23 mph (20 kts) from 280° at 15 min
2018-01-21 16:00 15 4 -4 60 270° 16 23 - - 0 Peak wind: 26 mph (23 kts) from 280° at 08 min
2018-01-21 15:00 15 5 -5 63 280° 20 26 - - 0 Peak wind: 26 mph (23 kts) from 280° at 59 min
2018-01-21 14:00 14 2 -6 60 280° 18 24 - - 0 Peak wind: 24 mph (21 kts) from 280° at 50 min

Support USWX by starting your Amazon purchase here.